sensor_id;sensor_type;location;lat;lon;timestamp;temperature;humidity
26575;DHT22;67165;50.256;10.978;2023-04-08T00:01:01;6.10;98.00
26575;DHT22;67165;50.256;10.978;2023-04-08T00:03:27;6.20;98.00
26575;DHT22;67165;50.256;10.978;2023-04-08T00:05:53;6.10;98.00
26575;DHT22;67165;50.256;10.978;2023-04-08T00:08:19;6.20;98.00
26575;DHT22;67165;50.256;10.978;2023-04-08T00:10:44;6.10;98.00
26575;DHT22;67165;50.256;10.978;2023-04-08T00:13:10;6.10;98.00
26575;DHT22;67165;50.256;10.978;2023-04-08T00:15:36;6.00;98.00
26575;DHT22;67165;50.256;10.978;2023-04-08T00:18:03;6.00;98.00
26575;DHT22;67165;50.256;10.978;2023-04-08T00:20:31;6.00;98.00
26575;DHT22;67165;50.256;10.978;2023-04-08T00:22:57;6.00;98.00
26575;DHT22;67165;50.256;10.978;2023-04-08T00:25:23;6.10;98.00
26575;DHT22;67165;50.256;10.978;2023-04-08T00:27:48;6.00;98.00
26575;DHT22;67165;50.256;10.978;2023-04-08T00:30:15;6.00;98.00
26575;DHT22;67165;50.256;10.978;2023-04-08T00:32:43;6.00;98.00
26575;DHT22;67165;50.256;10.978;2023-04-08T00:35:09;6.00;98.00
26575;DHT22;67165;50.256;10.978;2023-04-08T00:37:37;6.00;98.00
26575;DHT22;67165;50.256;10.978;2023-04-08T00:40:03;5.90;98.00
26575;DHT22;67165;50.256;10.978;2023-04-08T00:42:29;5.90;98.00
26575;DHT22;67165;50.256;10.978;2023-04-08T00:44:55;5.90;98.00
26575;DHT22;67165;50.256;10.978;2023-04-08T00:47:21;5.80;98.00
26575;DHT22;67165;50.256;10.978;2023-04-08T00:49:52;5.80;98.00
26575;DHT22;67165;50.256;10.978;2023-04-08T00:52:20;5.80;98.00
26575;DHT22;67165;50.256;10.978;2023-04-08T00:54:46;5.70;98.00
26575;DHT22;67165;50.256;10.978;2023-04-08T00:57:11;5.70;98.00
26575;DHT22;67165;50.256;10.978;2023-04-08T00:59:37;5.60;98.00
26575;DHT22;67165;50.256;10.978;2023-04-08T01:05:06;5.50;98.00
26575;DHT22;67165;50.256;10.978;2023-04-08T01:07:49;5.40;98.00
26575;DHT22;67165;50.256;10.978;2023-04-08T01:10:22;5.20;98.00
26575;DHT22;67165;50.256;10.978;2023-04-08T01:12:56;5.10;98.00
26575;DHT22;67165;50.256;10.978;2023-04-08T01:15:24;5.10;98.00
26575;DHT22;67165;50.256;10.978;2023-04-08T01:17:53;5.00;98.00
26575;DHT22;67165;50.256;10.978;2023-04-08T01:20:20;4.90;98.00
26575;DHT22;67165;50.256;10.978;2023-04-08T01:25:35;4.70;98.00
26575;DHT22;67165;50.256;10.978;2023-04-08T01:28:05;4.60;98.00
26575;DHT22;67165;50.256;10.978;2023-04-08T01:30:32;4.50;98.00
26575;DHT22;67165;50.256;10.978;2023-04-08T01:33:00;4.40;98.00
26575;DHT22;67165;50.256;10.978;2023-04-08T01:35:27;4.40;98.00
26575;DHT22;67165;50.256;10.978;2023-04-08T01:37:53;4.30;98.00
26575;DHT22;67165;50.256;10.978;2023-04-08T01:40:20;4.30;98.00
26575;DHT22;67165;50.256;10.978;2023-04-08T01:42:50;4.30;98.00
26575;DHT22;67165;50.256;10.978;2023-04-08T01:45:17;4.30;98.00
26575;DHT22;67165;50.256;10.978;2023-04-08T01:47:47;4.20;98.00
26575;DHT22;67165;50.256;10.978;2023-04-08T01:50:14;4.20;98.00
26575;DHT22;67165;50.256;10.978;2023-04-08T01:52:43;4.20;98.00
26575;DHT22;67165;50.256;10.978;2023-04-08T01:55:09;4.10;98.00
26575;DHT22;67165;50.256;10.978;2023-04-08T01:57:37;4.10;98.00
26575;DHT22;67165;50.256;10.978;2023-04-08T02:00:11;4.10;98.00
26575;DHT22;67165;50.256;10.978;2023-04-08T02:02:37;4.10;98.00
26575;DHT22;67165;50.256;10.978;2023-04-08T02:05:06;4.10;98.00
26575;DHT22;67165;50.256;10.978;2023-04-08T02:07:32;4.10;98.00
26575;DHT22;67165;50.256;10.978;2023-04-08T02:09:57;4.20;98.00
26575;DHT22;67165;50.256;10.978;2023-04-08T02:12:23;4.20;98.00
26575;DHT22;67165;50.256;10.978;2023-04-08T02:14:49;4.30;98.00
26575;DHT22;67165;50.256;10.978;2023-04-08T02:17:24;4.30;98.00
26575;DHT22;67165;50.256;10.978;2023-04-08T02:20:05;4.40;98.00
26575;DHT22;67165;50.256;10.978;2023-04-08T02:22:42;4.40;98.00
26575;DHT22;67165;50.256;10.978;2023-04-08T02:25:13;4.50;98.00
26575;DHT22;67165;50.256;10.978;2023-04-08T02:27:40;4.50;98.00
26575;DHT22;67165;50.256;10.978;2023-04-08T02:30:09;4.50;98.00
26575;DHT22;67165;50.256;10.978;2023-04-08T02:32:35;4.60;98.00
26575;DHT22;67165;50.256;10.978;2023-04-08T02:35:01;4.60;98.00
26575;DHT22;67165;50.256;10.978;2023-04-08T02:37:29;4.60;98.00
26575;DHT22;67165;50.256;10.978;2023-04-08T02:39:55;4.70;98.00
26575;DHT22;67165;50.256;10.978;2023-04-08T02:42:20;4.70;98.00
26575;DHT22;67165;50.256;10.978;2023-04-08T02:44:46;4.70;98.00
26575;DHT22;67165;50.256;10.978;2023-04-08T02:47:12;4.70;98.00
26575;DHT22;67165;50.256;10.978;2023-04-08T02:49:38;4.80;98.00
26575;DHT22;67165;50.256;10.978;2023-04-08T02:52:03;4.80;98.00
26575;DHT22;67165;50.256;10.978;2023-04-08T02:54:29;4.90;98.00
26575;DHT22;67165;50.256;10.978;2023-04-08T02:56:55;4.90;98.00
26575;DHT22;67165;50.256;10.978;2023-04-08T02:59:21;4.90;98.00
26575;DHT22;67165;50.256;10.978;2023-04-08T03:01:47;4.90;98.00
26575;DHT22;67165;50.256;10.978;2023-04-08T03:04:14;4.90;98.00
26575;DHT22;67165;50.256;10.978;2023-04-08T03:06:39;4.90;98.00
26575;DHT22;67165;50.256;10.978;2023-04-08T03:09:05;4.80;98.00
26575;DHT22;67165;50.256;10.978;2023-04-08T03:11:31;4.80;98.00
26575;DHT22;67165;50.256;10.978;2023-04-08T03:13:57;4.70;98.00
26575;DHT22;67165;50.256;10.978;2023-04-08T03:16:23;4.70;98.00
26575;DHT22;67165;50.256;10.978;2023-04-08T03:18:49;4.70;98.00
26575;DHT22;67165;50.256;10.978;2023-04-08T03:21:22;4.70;98.00
26575;DHT22;67165;50.256;10.978;2023-04-08T03:23:49;4.70;98.00
26575;DHT22;67165;50.256;10.978;2023-04-08T03:26:14;4.80;98.00
26575;DHT22;67165;50.256;10.978;2023-04-08T03:28:40;4.80;98.00
26575;DHT22;67165;50.256;10.978;2023-04-08T03:31:15;4.70;98.00
26575;DHT22;67165;50.256;10.978;2023-04-08T03:33:40;4.70;98.00
26575;DHT22;67165;50.256;10.978;2023-04-08T03:36:06;4.70;98.00
26575;DHT22;67165;50.256;10.978;2023-04-08T03:38:32;4.70;98.00
26575;DHT22;67165;50.256;10.978;2023-04-08T03:41:02;4.70;98.00
26575;DHT22;67165;50.256;10.978;2023-04-08T03:43:28;4.50;98.00
26575;DHT22;67165;50.256;10.978;2023-04-08T03:45:55;4.50;98.00
26575;DHT22;67165;50.256;10.978;2023-04-08T03:48:21;4.50;98.00
26575;DHT22;67165;50.256;10.978;2023-04-08T03:50:49;4.50;98.00
26575;DHT22;67165;50.256;10.978;2023-04-08T03:53:15;4.40;98.00
26575;DHT22;67165;50.256;10.978;2023-04-08T03:55:43;4.40;98.00
26575;DHT22;67165;50.256;10.978;2023-04-08T03:58:11;4.40;98.00
26575;DHT22;67165;50.256;10.978;2023-04-08T04:00:37;4.40;98.00
26575;DHT22;67165;50.256;10.978;2023-04-08T04:03:02;4.50;98.00
26575;DHT22;67165;50.256;10.978;2023-04-08T04:05:28;4.50;98.00
26575;DHT22;67165;50.256;10.978;2023-04-08T04:07:54;4.50;98.00
26575;DHT22;67165;50.256;10.978;2023-04-08T04:10:19;4.50;98.00
26575;DHT22;67165;50.256;10.978;2023-04-08T04:12:45;4.50;98.00
26575;DHT22;67165;50.256;10.978;2023-04-08T04:15:12;4.70;98.00
26575;DHT22;67165;50.256;10.978;2023-04-08T04:17:37;4.60;98.00
26575;DHT22;67165;50.256;10.978;2023-04-08T04:20:06;4.50;98.00
26575;DHT22;67165;50.256;10.978;2023-04-08T04:22:32;4.50;98.00
26575;DHT22;67165;50.256;10.978;2023-04-08T04:25:00;4.60;98.00
26575;DHT22;67165;50.256;10.978;2023-04-08T04:27:26;4.60;98.00
26575;DHT22;67165;50.256;10.978;2023-04-08T04:29:51;4.60;98.00
26575;DHT22;67165;50.256;10.978;2023-04-08T04:32:17;4.50;98.00
26575;DHT22;67165;50.256;10.978;2023-04-08T04:34:43;4.50;98.00
26575;DHT22;67165;50.256;10.978;2023-04-08T04:37:09;4.50;98.00
26575;DHT22;67165;50.256;10.978;2023-04-08T04:39:35;4.50;98.00
26575;DHT22;67165;50.256;10.978;2023-04-08T04:42:00;4.50;98.00
26575;DHT22;67165;50.256;10.978;2023-04-08T04:44:27;4.50;98.00
26575;DHT22;67165;50.256;10.978;2023-04-08T04:46:53;4.50;98.00
26575;DHT22;67165;50.256;10.978;2023-04-08T04:49:19;4.60;98.00
26575;DHT22;67165;50.256;10.978;2023-04-08T04:51:44;4.50;98.00
26575;DHT22;67165;50.256;10.978;2023-04-08T04:54:10;4.50;98.00
26575;DHT22;67165;50.256;10.978;2023-04-08T04:56:36;4.50;98.00
26575;DHT22;67165;50.256;10.978;2023-04-08T04:59:01;4.50;98.00
26575;DHT22;67165;50.256;10.978;2023-04-08T05:01:27;4.50;98.00
26575;DHT22;67165;50.256;10.978;2023-04-08T05:03:53;4.50;98.00
26575;DHT22;67165;50.256;10.978;2023-04-08T05:06:19;4.50;98.00
26575;DHT22;67165;50.256;10.978;2023-04-08T05:08:44;4.50;98.00
26575;DHT22;67165;50.256;10.978;2023-04-08T05:11:10;4.50;98.00
26575;DHT22;67165;50.256;10.978;2023-04-08T05:13:36;4.50;98.00
26575;DHT22;67165;50.256;10.978;2023-04-08T05:16:01;4.50;98.00
26575;DHT22;67165;50.256;10.978;2023-04-08T05:18:27;4.60;98.00
26575;DHT22;67165;50.256;10.978;2023-04-08T05:20:53;4.60;98.00
26575;DHT22;67165;50.256;10.978;2023-04-08T05:23:18;4.60;98.00
26575;DHT22;67165;50.256;10.978;2023-04-08T05:25:44;4.60;98.00
26575;DHT22;67165;50.256;10.978;2023-04-08T05:28:10;4.60;98.00
26575;DHT22;67165;50.256;10.978;2023-04-08T05:30:36;4.60;98.00
26575;DHT22;67165;50.256;10.978;2023-04-08T05:33:02;4.60;98.00
26575;DHT22;67165;50.256;10.978;2023-04-08T05:35:28;4.60;98.00
26575;DHT22;67165;50.256;10.978;2023-04-08T05:37:54;4.70;98.00
26575;DHT22;67165;50.256;10.978;2023-04-08T05:40:22;4.70;98.00
26575;DHT22;67165;50.256;10.978;2023-04-08T05:42:48;4.70;98.00
26575;DHT22;67165;50.256;10.978;2023-04-08T05:45:16;4.90;98.00
26575;DHT22;67165;50.256;10.978;2023-04-08T05:47:44;4.90;98.00
26575;DHT22;67165;50.256;10.978;2023-04-08T05:50:10;4.90;98.00
26575;DHT22;67165;50.256;10.978;2023-04-08T05:52:36;4.90;98.00
26575;DHT22;67165;50.256;10.978;2023-04-08T05:55:02;4.90;98.00
26575;DHT22;67165;50.256;10.978;2023-04-08T05:57:27;4.90;98.00
26575;DHT22;67165;50.256;10.978;2023-04-08T05:59:53;4.90;98.00
26575;DHT22;67165;50.256;10.978;2023-04-08T06:02:19;5.00;98.00
26575;DHT22;67165;50.256;10.978;2023-04-08T06:04:45;5.00;98.00
26575;DHT22;67165;50.256;10.978;2023-04-08T06:07:10;5.10;98.00
26575;DHT22;67165;50.256;10.978;2023-04-08T06:09:36;5.20;98.00
26575;DHT22;67165;50.256;10.978;2023-04-08T06:12:02;5.30;98.00
26575;DHT22;67165;50.256;10.978;2023-04-08T06:14:31;5.40;98.00
26575;DHT22;67165;50.256;10.978;2023-04-08T06:16:56;5.40;98.00
26575;DHT22;67165;50.256;10.978;2023-04-08T06:19:24;5.50;98.00
26575;DHT22;67165;50.256;10.978;2023-04-08T06:21:49;5.60;98.00
26575;DHT22;67165;50.256;10.978;2023-04-08T06:24:16;5.60;98.00
26575;DHT22;67165;50.256;10.978;2023-04-08T06:26:42;5.60;98.00
26575;DHT22;67165;50.256;10.978;2023-04-08T06:29:07;5.50;98.00
26575;DHT22;67165;50.256;10.978;2023-04-08T06:31:33;5.50;98.00
26575;DHT22;67165;50.256;10.978;2023-04-08T06:33:58;5.60;98.00
26575;DHT22;67165;50.256;10.978;2023-04-08T06:36:24;5.70;98.00
26575;DHT22;67165;50.256;10.978;2023-04-08T06:38:50;5.70;98.00
26575;DHT22;67165;50.256;10.978;2023-04-08T06:41:16;5.70;98.00
26575;DHT22;67165;50.256;10.978;2023-04-08T06:43:42;5.70;98.00
26575;DHT22;67165;50.256;10.978;2023-04-08T06:46:07;5.80;98.00
26575;DHT22;67165;50.256;10.978;2023-04-08T06:48:33;5.90;98.00
26575;DHT22;67165;50.256;10.978;2023-04-08T06:50:59;6.00;98.00
26575;DHT22;67165;50.256;10.978;2023-04-08T06:53:27;6.00;98.00
26575;DHT22;67165;50.256;10.978;2023-04-08T06:55:57;6.10;98.00
26575;DHT22;67165;50.256;10.978;2023-04-08T06:58:22;6.20;98.00
26575;DHT22;67165;50.256;10.978;2023-04-08T07:00:53;6.10;98.00
26575;DHT22;67165;50.256;10.978;2023-04-08T07:03:20;6.10;98.00
26575;DHT22;67165;50.256;10.978;2023-04-08T07:05:46;6.20;98.00
26575;DHT22;67165;50.256;10.978;2023-04-08T07:08:12;6.30;98.00
26575;DHT22;67165;50.256;10.978;2023-04-08T07:10:40;6.30;98.00
26575;DHT22;67165;50.256;10.978;2023-04-08T07:13:06;6.20;98.00
26575;DHT22;67165;50.256;10.978;2023-04-08T07:15:32;6.10;98.00
26575;DHT22;67165;50.256;10.978;2023-04-08T07:17:57;6.20;98.00
26575;DHT22;67165;50.256;10.978;2023-04-08T07:20:24;6.30;98.00
26575;DHT22;67165;50.256;10.978;2023-04-08T07:22:53;6.20;98.00
26575;DHT22;67165;50.256;10.978;2023-04-08T07:25:18;6.30;98.00
26575;DHT22;67165;50.256;10.978;2023-04-08T07:27:44;6.30;98.00
26575;DHT22;67165;50.256;10.978;2023-04-08T07:30:10;6.40;98.00
26575;DHT22;67165;50.256;10.978;2023-04-08T07:32:36;6.30;98.00
26575;DHT22;67165;50.256;10.978;2023-04-08T07:35:02;6.50;98.00
26575;DHT22;67165;50.256;10.978;2023-04-08T07:37:28;6.50;98.00
26575;DHT22;67165;50.256;10.978;2023-04-08T07:39:54;6.60;98.00
26575;DHT22;67165;50.256;10.978;2023-04-08T07:42:19;6.60;98.00
26575;DHT22;67165;50.256;10.978;2023-04-08T07:44:45;6.80;98.00
26575;DHT22;67165;50.256;10.978;2023-04-08T07:47:11;6.80;98.00
26575;DHT22;67165;50.256;10.978;2023-04-08T07:49:37;7.00;98.00
26575;DHT22;67165;50.256;10.978;2023-04-08T07:52:06;6.90;98.00
26575;DHT22;67165;50.256;10.978;2023-04-08T07:54:32;7.10;98.00
26575;DHT22;67165;50.256;10.978;2023-04-08T07:56:59;7.30;98.00
26575;DHT22;67165;50.256;10.978;2023-04-08T07:59:27;7.40;98.00
26575;DHT22;67165;50.256;10.978;2023-04-08T08:01:53;7.50;98.00
26575;DHT22;67165;50.256;10.978;2023-04-08T08:04:19;7.60;98.00
26575;DHT22;67165;50.256;10.978;2023-04-08T08:06:46;7.70;98.00
26575;DHT22;67165;50.256;10.978;2023-04-08T08:09:14;7.60;98.00
26575;DHT22;67165;50.256;10.978;2023-04-08T08:11:40;7.70;98.00
26575;DHT22;67165;50.256;10.978;2023-04-08T08:14:09;7.70;98.00
26575;DHT22;67165;50.256;10.978;2023-04-08T08:16:36;7.70;98.00
26575;DHT22;67165;50.256;10.978;2023-04-08T08:19:03;7.50;98.00
26575;DHT22;67165;50.256;10.978;2023-04-08T08:21:30;7.40;98.00
26575;DHT22;67165;50.256;10.978;2023-04-08T08:23:56;7.30;98.00
26575;DHT22;67165;50.256;10.978;2023-04-08T08:26:24;7.30;98.00
26575;DHT22;67165;50.256;10.978;2023-04-08T08:28:49;7.30;98.00
26575;DHT22;67165;50.256;10.978;2023-04-08T08:31:15;7.40;98.00
26575;DHT22;67165;50.256;10.978;2023-04-08T08:33:41;7.60;98.00
26575;DHT22;67165;50.256;10.978;2023-04-08T08:36:12;7.70;98.00
26575;DHT22;67165;50.256;10.978;2023-04-08T08:38:40;7.80;98.00
26575;DHT22;67165;50.256;10.978;2023-04-08T08:41:06;7.90;98.00
26575;DHT22;67165;50.256;10.978;2023-04-08T08:43:34;8.00;98.00
26575;DHT22;67165;50.256;10.978;2023-04-08T08:46:05;8.20;98.00
26575;DHT22;67165;50.256;10.978;2023-04-08T08:48:35;8.50;98.00
26575;DHT22;67165;50.256;10.978;2023-04-08T08:51:12;8.60;98.00
26575;DHT22;67165;50.256;10.978;2023-04-08T08:53:38;8.60;98.00
26575;DHT22;67165;50.256;10.978;2023-04-08T08:56:04;8.80;98.00
26575;DHT22;67165;50.256;10.978;2023-04-08T08:58:33;8.80;98.00
26575;DHT22;67165;50.256;10.978;2023-04-08T09:00:59;8.90;98.00
26575;DHT22;67165;50.256;10.978;2023-04-08T09:03:29;9.00;98.00
26575;DHT22;67165;50.256;10.978;2023-04-08T09:05:55;9.00;98.00
26575;DHT22;67165;50.256;10.978;2023-04-08T09:08:27;8.90;98.00
26575;DHT22;67165;50.256;10.978;2023-04-08T09:11:17;8.90;98.00
26575;DHT22;67165;50.256;10.978;2023-04-08T09:13:46;8.70;98.00
26575;DHT22;67165;50.256;10.978;2023-04-08T09:16:15;8.40;98.00
26575;DHT22;67165;50.256;10.978;2023-04-08T09:18:45;8.40;98.00
26575;DHT22;67165;50.256;10.978;2023-04-08T09:21:16;8.50;98.00
26575;DHT22;67165;50.256;10.978;2023-04-08T09:23:49;8.70;98.00
26575;DHT22;67165;50.256;10.978;2023-04-08T09:26:20;8.80;98.00
26575;DHT22;67165;50.256;10.978;2023-04-08T09:29:06;8.90;98.00
26575;DHT22;67165;50.256;10.978;2023-04-08T09:31:38;8.60;98.00
26575;DHT22;67165;50.256;10.978;2023-04-08T09:34:19;8.70;98.00
26575;DHT22;67165;50.256;10.978;2023-04-08T09:36:47;8.60;98.00
26575;DHT22;67165;50.256;10.978;2023-04-08T09:39:16;8.60;98.00
26575;DHT22;67165;50.256;10.978;2023-04-08T09:41:42;8.30;98.00
26575;DHT22;67165;50.256;10.978;2023-04-08T09:44:11;8.20;98.00
26575;DHT22;67165;50.256;10.978;2023-04-08T09:49:25;8.10;98.00
26575;DHT22;67165;50.256;10.978;2023-04-08T10:00:15;8.00;98.00
26575;DHT22;67165;50.256;10.978;2023-04-08T10:05:31;8.10;98.00
26575;DHT22;67165;50.256;10.978;2023-04-08T10:07:58;8.40;98.00
26575;DHT22;67165;50.256;10.978;2023-04-08T10:10:29;9.00;98.00
26575;DHT22;67165;50.256;10.978;2023-04-08T10:12:55;9.30;98.00
26575;DHT22;67165;50.256;10.978;2023-04-08T10:15:27;9.60;98.00
26575;DHT22;67165;50.256;10.978;2023-04-08T10:20:46;9.40;98.00
26575;DHT22;67165;50.256;10.978;2023-04-08T10:23:16;9.40;98.00
26575;DHT22;67165;50.256;10.978;2023-04-08T10:25:49;9.40;98.00
26575;DHT22;67165;50.256;10.978;2023-04-08T10:28:26;9.40;98.00
26575;DHT22;67165;50.256;10.978;2023-04-08T10:30:55;9.50;98.00
26575;DHT22;67165;50.256;10.978;2023-04-08T10:33:34;9.60;98.00
26575;DHT22;67165;50.256;10.978;2023-04-08T10:38:32;9.90;98.00
26575;DHT22;67165;50.256;10.978;2023-04-08T10:40:57;10.00;98.00
26575;DHT22;67165;50.256;10.978;2023-04-08T10:43:23;10.10;98.00
26575;DHT22;67165;50.256;10.978;2023-04-08T10:45:52;10.10;98.00
26575;DHT22;67165;50.256;10.978;2023-04-08T10:48:22;9.90;98.00
26575;DHT22;67165;50.256;10.978;2023-04-08T10:51:01;9.90;98.00
26575;DHT22;67165;50.256;10.978;2023-04-08T10:53:36;9.80;98.00
26575;DHT22;67165;50.256;10.978;2023-04-08T10:58:34;10.00;98.00
26575;DHT22;67165;50.256;10.978;2023-04-08T11:01:07;9.80;98.00
26575;DHT22;67165;50.256;10.978;2023-04-08T11:03:34;9.80;98.00
26575;DHT22;67165;50.256;10.978;2023-04-08T11:06:02;9.60;98.00
26575;DHT22;67165;50.256;10.978;2023-04-08T11:08:32;9.50;98.00
26575;DHT22;67165;50.256;10.978;2023-04-08T11:11:01;9.40;98.00
26575;DHT22;67165;50.256;10.978;2023-04-08T11:13:30;9.30;98.00
26575;DHT22;67165;50.256;10.978;2023-04-08T11:15:57;9.00;98.00
26575;DHT22;67165;50.256;10.978;2023-04-08T11:18:27;8.80;98.00
26575;DHT22;67165;50.256;10.978;2023-04-08T11:21:08;8.70;98.00
26575;DHT22;67165;50.256;10.978;2023-04-08T11:23:43;8.80;98.00
26575;DHT22;67165;50.256;10.978;2023-04-08T11:26:10;8.90;98.00
26575;DHT22;67165;50.256;10.978;2023-04-08T11:28:38;9.20;98.00
26575;DHT22;67165;50.256;10.978;2023-04-08T11:31:05;9.40;98.00
26575;DHT22;67165;50.256;10.978;2023-04-08T11:33:33;9.40;98.00
26575;DHT22;67165;50.256;10.978;2023-04-08T11:36:03;9.40;98.00
26575;DHT22;67165;50.256;10.978;2023-04-08T11:38:32;9.30;98.00
26575;DHT22;67165;50.256;10.978;2023-04-08T11:40:59;9.10;98.00
26575;DHT22;67165;50.256;10.978;2023-04-08T11:43:25;9.10;98.00
26575;DHT22;67165;50.256;10.978;2023-04-08T11:45:58;9.20;98.00
26575;DHT22;67165;50.256;10.978;2023-04-08T11:48:25;9.10;98.00
26575;DHT22;67165;50.256;10.978;2023-04-08T11:51:04;9.40;98.00
26575;DHT22;67165;50.256;10.978;2023-04-08T11:53:36;9.60;98.00
26575;DHT22;67165;50.256;10.978;2023-04-08T11:56:24;9.70;98.00
26575;DHT22;67165;50.256;10.978;2023-04-08T11:58:54;9.80;98.00
26575;DHT22;67165;50.256;10.978;2023-04-08T12:01:22;10.00;98.00
26575;DHT22;67165;50.256;10.978;2023-04-08T12:04:00;9.90;98.00
26575;DHT22;67165;50.256;10.978;2023-04-08T12:06:27;10.00;98.00
26575;DHT22;67165;50.256;10.978;2023-04-08T12:08:56;10.10;98.00
26575;DHT22;67165;50.256;10.978;2023-04-08T12:11:24;10.30;98.00
26575;DHT22;67165;50.256;10.978;2023-04-08T12:13:53;10.30;98.00
26575;DHT22;67165;50.256;10.978;2023-04-08T12:16:19;10.20;98.00
26575;DHT22;67165;50.256;10.978;2023-04-08T12:18:45;10.10;98.00
26575;DHT22;67165;50.256;10.978;2023-04-08T12:21:11;10.00;98.00
26575;DHT22;67165;50.256;10.978;2023-04-08T12:23:37;9.90;98.00
26575;DHT22;67165;50.256;10.978;2023-04-08T12:26:05;9.80;98.00
26575;DHT22;67165;50.256;10.978;2023-04-08T12:28:34;9.70;98.00
26575;DHT22;67165;50.256;10.978;2023-04-08T12:31:07;9.90;98.00
26575;DHT22;67165;50.256;10.978;2023-04-08T12:33:33;9.80;98.00
26575;DHT22;67165;50.256;10.978;2023-04-08T12:36:01;9.70;98.00
26575;DHT22;67165;50.256;10.978;2023-04-08T12:38:30;9.50;98.00
26575;DHT22;67165;50.256;10.978;2023-04-08T12:40:56;9.40;98.00
26575;DHT22;67165;50.256;10.978;2023-04-08T12:43:24;9.40;98.00
26575;DHT22;67165;50.256;10.978;2023-04-08T12:45:53;9.40;98.00
26575;DHT22;67165;50.256;10.978;2023-04-08T12:48:19;9.30;98.00
26575;DHT22;67165;50.256;10.978;2023-04-08T12:50:44;9.20;98.00
26575;DHT22;67165;50.256;10.978;2023-04-08T12:53:13;9.20;98.00
26575;DHT22;67165;50.256;10.978;2023-04-08T12:55:46;9.10;98.00
26575;DHT22;67165;50.256;10.978;2023-04-08T12:58:12;9.20;98.00
26575;DHT22;67165;50.256;10.978;2023-04-08T13:00:43;9.30;98.00
26575;DHT22;67165;50.256;10.978;2023-04-08T13:03:11;9.20;98.00
26575;DHT22;67165;50.256;10.978;2023-04-08T13:05:38;9.30;98.00
26575;DHT22;67165;50.256;10.978;2023-04-08T13:08:06;9.30;98.00
26575;DHT22;67165;50.256;10.978;2023-04-08T13:10:33;9.20;98.00
26575;DHT22;67165;50.256;10.978;2023-04-08T13:12:59;9.30;98.00
26575;DHT22;67165;50.256;10.978;2023-04-08T13:15:36;9.30;98.00
26575;DHT22;67165;50.256;10.978;2023-04-08T13:18:02;9.30;98.00
26575;DHT22;67165;50.256;10.978;2023-04-08T13:20:31;9.00;98.00
26575;DHT22;67165;50.256;10.978;2023-04-08T13:22:58;9.00;98.00
26575;DHT22;67165;50.256;10.978;2023-04-08T13:25:25;9.00;98.00
26575;DHT22;67165;50.256;10.978;2023-04-08T13:27:51;9.00;98.00
26575;DHT22;67165;50.256;10.978;2023-04-08T13:30:19;9.00;98.00
26575;DHT22;67165;50.256;10.978;2023-04-08T13:32:47;8.90;98.00
26575;DHT22;67165;50.256;10.978;2023-04-08T13:35:21;8.80;98.00
26575;DHT22;67165;50.256;10.978;2023-04-08T13:37:51;8.70;98.00
26575;DHT22;67165;50.256;10.978;2023-04-08T13:40:17;8.80;98.00
26575;DHT22;67165;50.256;10.978;2023-04-08T13:42:42;8.80;98.00
26575;DHT22;67165;50.256;10.978;2023-04-08T13:45:13;8.80;98.00
26575;DHT22;67165;50.256;10.978;2023-04-08T13:47:39;8.80;98.00
26575;DHT22;67165;50.256;10.978;2023-04-08T13:50:10;8.60;98.00
26575;DHT22;67165;50.256;10.978;2023-04-08T13:52:39;8.50;98.00
26575;DHT22;67165;50.256;10.978;2023-04-08T13:55:10;8.50;98.00
26575;DHT22;67165;50.256;10.978;2023-04-08T13:57:38;8.60;98.00
26575;DHT22;67165;50.256;10.978;2023-04-08T14:00:06;8.70;98.00
26575;DHT22;67165;50.256;10.978;2023-04-08T14:02:37;8.70;98.00
26575;DHT22;67165;50.256;10.978;2023-04-08T14:05:03;8.80;98.00
26575;DHT22;67165;50.256;10.978;2023-04-08T14:07:32;8.80;98.00
26575;DHT22;67165;50.256;10.978;2023-04-08T14:10:00;8.90;98.00
26575;DHT22;67165;50.256;10.978;2023-04-08T14:12:30;9.00;98.00
26575;DHT22;67165;50.256;10.978;2023-04-08T14:14:56;9.20;98.00
26575;DHT22;67165;50.256;10.978;2023-04-08T14:17:21;9.20;98.00
26575;DHT22;67165;50.256;10.978;2023-04-08T14:19:50;9.30;98.00
26575;DHT22;67165;50.256;10.978;2023-04-08T14:22:16;9.20;98.00
26575;DHT22;67165;50.256;10.978;2023-04-08T14:24:43;9.20;98.00
26575;DHT22;67165;50.256;10.978;2023-04-08T14:27:09;9.10;98.00
26575;DHT22;67165;50.256;10.978;2023-04-08T14:29:34;9.20;98.00
26575;DHT22;67165;50.256;10.978;2023-04-08T14:32:03;9.20;98.00
26575;DHT22;67165;50.256;10.978;2023-04-08T14:34:32;9.10;98.00
26575;DHT22;67165;50.256;10.978;2023-04-08T14:36:58;9.10;98.00
26575;DHT22;67165;50.256;10.978;2023-04-08T14:39:23;9.20;98.00
26575;DHT22;67165;50.256;10.978;2023-04-08T14:41:51;9.20;98.00
26575;DHT22;67165;50.256;10.978;2023-04-08T14:44:17;9.10;98.00
26575;DHT22;67165;50.256;10.978;2023-04-08T14:46:43;9.10;98.00
26575;DHT22;67165;50.256;10.978;2023-04-08T14:49:11;9.10;98.00
26575;DHT22;67165;50.256;10.978;2023-04-08T14:51:39;9.20;98.00
26575;DHT22;67165;50.256;10.978;2023-04-08T14:54:05;9.30;98.00
26575;DHT22;67165;50.256;10.978;2023-04-08T14:56:37;9.40;98.00
26575;DHT22;67165;50.256;10.978;2023-04-08T14:59:03;9.50;98.00
26575;DHT22;67165;50.256;10.978;2023-04-08T15:01:31;9.60;98.00
26575;DHT22;67165;50.256;10.978;2023-04-08T15:03:58;9.60;98.00
26575;DHT22;67165;50.256;10.978;2023-04-08T15:06:24;9.50;98.00
26575;DHT22;67165;50.256;10.978;2023-04-08T15:08:50;9.50;98.00
26575;DHT22;67165;50.256;10.978;2023-04-08T15:11:16;9.40;98.00
26575;DHT22;67165;50.256;10.978;2023-04-08T15:13:45;9.40;98.00
26575;DHT22;67165;50.256;10.978;2023-04-08T15:16:11;9.50;98.00
26575;DHT22;67165;50.256;10.978;2023-04-08T15:18:39;9.40;98.00
26575;DHT22;67165;50.256;10.978;2023-04-08T15:21:05;9.20;98.00
26575;DHT22;67165;50.256;10.978;2023-04-08T15:23:31;9.20;98.00
26575;DHT22;67165;50.256;10.978;2023-04-08T15:25:57;9.10;98.00
26575;DHT22;67165;50.256;10.978;2023-04-08T15:28:23;9.00;98.00
26575;DHT22;67165;50.256;10.978;2023-04-08T15:30:49;9.00;98.00
26575;DHT22;67165;50.256;10.978;2023-04-08T15:33:15;9.00;98.00
26575;DHT22;67165;50.256;10.978;2023-04-08T15:35:44;9.10;98.00
26575;DHT22;67165;50.256;10.978;2023-04-08T15:38:12;9.10;98.00
26575;DHT22;67165;50.256;10.978;2023-04-08T15:40:41;9.10;98.00
26575;DHT22;67165;50.256;10.978;2023-04-08T15:43:07;9.10;98.00
26575;DHT22;67165;50.256;10.978;2023-04-08T15:45:43;9.10;98.00
26575;DHT22;67165;50.256;10.978;2023-04-08T15:48:12;9.10;98.00
26575;DHT22;67165;50.256;10.978;2023-04-08T15:50:46;9.10;98.00
26575;DHT22;67165;50.256;10.978;2023-04-08T15:53:15;9.10;98.00
26575;DHT22;67165;50.256;10.978;2023-04-08T15:55:41;9.00;98.00
26575;DHT22;67165;50.256;10.978;2023-04-08T15:58:10;8.90;98.00
26575;DHT22;67165;50.256;10.978;2023-04-08T16:00:38;8.90;98.00